Terminal Aerodrome Forecast
Issued by NWS

Home | Current Version | Previous Version | Text Only | Print | Product List | Glossary On
Versions: 1 2 3 4 5 6 7 8 9 10 11 12 13 14 15 16 17 18 19 20 21 22 23 24 25 26 27 28 29 30 31 32 33 34 35 36 37 38 39 40 41
000
FTAK31 PAFA 020531
TAFAOT
TAF
PAOT 020531Z 0206/0306 30011KT P6SM OVC060
     FM021500 32010KT P6SM OVC025
     FM021800 34010KT P6SM BKN100
     FM022100 33016KT P6SM BKN120=

USA.gov is the U.S. government's official web portal to all federal, state and local government web resources and services.